Manderson, South Dakota
Current Conditions -  °F | °C
As of 6:52 PM on Monday 22 Dec 2014 (Local Time) from KIEN Reporting Station
Light Snow Light Snow  
Wind Chill: 18°   Ceiling: 1700
Heat Index: 31°   Visibility: 1mi
Dew Point: 25°   Wind: 22mph
Humidity: 79%   Direction: 330°NNW
Pressure: 29.66"   Gusts: 37mph
Location:  43.24°N, 102.47°W
Report Text: KIEN 230152Z AUTO 33019G32KT 1SM -SN VV017 M01/M04 A2966 RMK AO2 PK WND 33034/0128 SLP066 P0000 T10061039
Loading
Personal Weather Stations






























Interactive Weather Map New forecast layout! Learn more

10-Day Weather Forecast

Advertisements
Track Severe Weather on mobile